FIMR

Sir Charles Gaetan Duval Airport

Port Mathurin, Mauritius
METAR FIMR 161800Z 07010KT 9999 FEW///CB SCT018 27/24 Q1017
Observed Flight Rules
Jan-16 @ 18:00 UTC (27 minutes ago) Visual Flight Rules
Wind Visibility Clouds
70° at 10 knots 10,000+ meters
  • Scattered at 1,800' AGL
Temperatures Readings
Current 27°C / 81°F
Dewpoint 24°C / 75°F
Humidity 84%
Altimeter 30.03" Hg
Pressure 1016.92 hPa
Elevation 31
METAR FIMR 161800Z 07010KT 9999 FEW///CB SCT018 27/24 Q1017
Observed Flight Rules
Jan-16 @ 18:00 UTC
(27 minutes ago)
VFR
Wind Visibility
70° at 10 knots 10,000+ meters
Clouds
  • Scattered at 1,800' AGL
Temperature Dewpoint
27°C / 81°F 24°C / 75°F
Humidity Altimeter Pressure
84% 30.03" Hg 1016.92 hPa